Language: 


Des rapports , des résumés tant et plus, au choix de chacun....


Données statistiques de la station
Quotidien Rapport Octobre 6, 2017 Unités:  Anglais    Métrique   les deux
« Précédent Jour
Suivant Jour »
Quotidien Hebdomadaire Mensuel Annuel Actuel
  Haut: Bas: Moyen:
Température: 64.2 °F 32 °F 52.3 °F
Pt de rosée: 53.6 °F 41 °F 46.4 °F
Humidité: 98 % 0 % 79 %
Vitesse du vent: 12.8 mph 0 mph 3.1 mph
Rafales: 14.3 mph - -
Vent:- - WNW
Pression: 30.3 in 30.1 in -
Précipitation: 0 in    
Historical Graphs
 
 
Données statistiques pour Octobre 6, 2017
Heure Température Point de rosée Pression Vent Vitesse du vent Refales Humidité Pluie (taux horaire)
00:02 48.7 °F 46.4 °F 30.1 in NNW 2.5 mph 4.9 mph 92 % 0 in
00:07 48.7 °F 46.4 °F 30.1 in North 2.5 mph 4.3 mph 92 % 0 in
00:12 51.4 °F 48.2 °F 30.1 in North 2.9 mph 3.6 mph 90 % 0 in
00:17 52.2 °F 48.2 °F 30.1 in NNW 3.6 mph 4.9 mph 86 % 0 in
00:22 52.2 °F 48.2 °F 30.1 in Calm   4.9 mph 85 % 0 in
00:27 52.2 °F 48.2 °F 30.1 in West 3.4 mph 4.9 mph 85 % 0 in
00:32 52.2 °F 48.2 °F 30.1 in Calm   3.6 mph 85 % 0 in
00:37 52.2 °F 48.2 °F 30.1 in Calm   3.4 mph 84 % 0 in
00:42 52 °F 48.2 °F 30.1 in Calm   3.1 mph 84 % 0 in
00:47 51.8 °F 48.2 °F 30.1 in Calm     84 % 0 in
00:52 51.6 °F 48.2 °F 30.1 in NNW 4 mph 4 mph 84 % 0 in
00:57 51.4 °F 46.4 °F 30.1 in Calm   4 mph 84 % 0 in
01:02 51.1 °F 48.2 °F 30.1 in WNW 1.3 mph 4 mph 85 % 0 in
01:07 50.9 °F 46.4 °F 30.1 in West 1.3 mph 4 mph 84 % 0 in
01:12 50.4 °F 46.4 °F 30.1 in Calm   2.5 mph 84 % 0 in
01:17 50.4 °F 46.4 °F 30.1 in Calm   2.5 mph 84 % 0 in
01:22 50.4 °F 46.4 °F 30.1 in Calm     84 % 0 in
01:27 48.9 °F 44.6 °F 30.1 in Calm     85 % 0 in
01:32 48.2 °F 44.6 °F 30.1 in Calm     85 % 0 in
01:37 48.2 °F 44.6 °F 30.1 in Calm     85 % 0 in
01:43 47.7 °F 44.6 °F 30.1 in Calm     87 % 0 in
01:48 47.7 °F 44.6 °F 30.1 in Calm     87 % 0 in
01:53 47.7 °F 44.6 °F 30.1 in Calm     87 % 0 in
01:58 47.5 °F 44.6 °F 30.1 in Calm   3.4 mph 89 % 0 in
02:03 47.5 °F 44.6 °F 30.1 in WNW 2.2 mph 3.4 mph 89 % 0 in
02:08 47.5 °F 44.6 °F 30.1 in WSW 4 mph 4.3 mph 89 % 0 in
02:13 47.7 °F 46.4 °F 30.1 in Calm   4.3 mph 92 % 0 in
02:18 47.8 °F 46.4 °F 30.1 in West 3.6 mph 3.8 mph 92 % 0 in
02:23 47.8 °F 46.4 °F 30.1 in West 3.8 mph 3.8 mph 92 % 0 in
02:28 47.8 °F 46.4 °F 30.1 in West 2.7 mph 3.8 mph 93 % 0 in
02:33 47.8 °F 46.4 °F 30.1 in West 2.7 mph 3.6 mph 93 % 0 in
02:38 47.8 °F 46.4 °F 30.1 in West 3.6 mph 4 mph 93 % 0 in
02:43 47.8 °F 46.4 °F 30.1 in West 4 mph 4 mph 93 % 0 in
02:48 47.8 °F 46.4 °F 30.1 in West 3.4 mph 5.4 mph 93 % 0 in
02:54 47.5 °F 46.4 °F 30.1 in WSW 5.4 mph 5.4 mph 93 % 0 in
02:59 47.3 °F 46.4 °F 30.1 in West 3.8 mph 5.4 mph 93 % 0 in
03:04 32 °F 46.4 °F 30.1 in West 3.6 mph 5.3 mph 0 % 0 in
03:09 32 °F 46.4 °F 30.1 in Calm   3.6 mph 0 % 0 in
03:14 32 °F 46.4 °F 30.1 in Calm   0.9 mph 0 % 0 in
03:19 46.9 °F 46.4 °F 30.1 in Calm   0.9 mph 93 % 0 in
03:22 46.8 °F 44.6 °F 30.1 in Calm     93 % 0 in
03:27 46.8 °F 44.6 °F 30.1 in Calm     93 % 0 in
03:32 46.6 °F 44.6 °F 30.1 in West 2.7 mph 4 mph 94 % 0 in
03:42 46.8 °F 46.4 °F 30.1 in Calm   4.9 mph 95 % 0 in
03:52 46.8 °F 46.4 °F 30.1 in West 3.8 mph 6 mph 95 % 0 in
03:57 46.9 °F 46.4 °F 30.1 in Calm   6 mph 96 % 0 in
04:02 46.9 °F 46.4 °F 30.1 in West 3.8 mph 3.8 mph 96 % 0 in
04:07 47.5 °F 48.2 °F 30.1 in West 4.9 mph 6 mph 97 % 0 in
04:12 47.7 °F 48.2 °F 30.1 in SW 5.4 mph 6 mph 97 % 0 in
04:17 48 °F 48.2 °F 30.1 in West 2.9 mph 5.4 mph 97 % 0 in
04:23 48.2 °F 48.2 °F 30.1 in WNW 4.7 mph 5.4 mph 97 % 0 in
04:28 48.4 °F 48.2 °F 30.1 in West 2.5 mph 4.9 mph 97 % 0 in
04:33 48.4 °F 48.2 °F 30.1 in West 5.4 mph 5.4 mph 96 % 0 in
04:38 48.4 °F 48.2 °F 30.1 in West 2.9 mph 5.4 mph 96 % 0 in
04:43 48.2 °F 48.2 °F 30.1 in WNW 3.6 mph 4.3 mph 96 % 0 in
04:48 48 °F 48.2 °F 30.1 in West 4.5 mph 4.5 mph 96 % 0 in
04:53 48.2 °F 48.2 °F 30.1 in WSW 2.9 mph 4.5 mph 96 % 0 in
05:03 48.2 °F 48.2 °F 30.1 in Calm   3.6 mph 96 % 0 in
05:08 48.2 °F 48.2 °F 30.1 in WNW 3.4 mph 3.6 mph 96 % 0 in
05:13 48.2 °F 48.2 °F 30.1 in West 1.3 mph 3.6 mph 96 % 0 in
05:18 48.2 °F 48.2 °F 30.1 in Calm   1.3 mph 97 % 0 in
05:23 48.2 °F 48.2 °F 30.1 in WSW 3.6 mph 6 mph 97 % 0 in
05:26 48.2 °F 48.2 °F 30.1 in WSW 4 mph 6 mph 97 % 0 in
05:27 48.2 °F 48.2 °F 30.1 in Calm   6 mph 96 % 0 in
05:32 48.2 °F 48.2 °F 30.1 in WSW 3.4 mph 4 mph 96 % 0 in
05:38 48.2 °F 48.2 °F 30.1 in Calm   4.7 mph 96 % 0 in
05:43 48.4 °F 48.2 °F 30.1 in Calm   5.4 mph 97 % 0 in
05:48 48.7 °F 48.2 °F 30.1 in WSW 3.8 mph 5.4 mph 98 % 0 in
05:53 48.7 °F 48.2 °F 30.1 in Calm   5.4 mph 98 % 0 in
05:58 49.1 °F 50 °F 30.1 in West 5.4 mph 5.4 mph 98 % 0 in
06:03 49.3 °F 50 °F 30.1 in WSW 3.4 mph 6.5 mph 98 % 0 in
06:08 49.5 °F 50 °F 30.1 in West 3.4 mph 6.5 mph 98 % 0 in
06:13 49.6 °F 50 °F 30.1 in Calm   5.6 mph 98 % 0 in
06:18 49.6 °F 50 °F 30.1 in WSW 5.6 mph 5.6 mph 98 % 0 in
06:28 49.6 °F 50 °F 30.1 in West 1.3 mph 5.6 mph 98 % 0 in
06:33 49.5 °F 50 °F 30.1 in WSW 3.4 mph 5.6 mph 98 % 0 in
06:38 49.5 °F 50 °F 30.1 in Calm   5.6 mph 98 % 0 in
06:43 49.6 °F 50 °F 30.1 in West 4 mph 5.4 mph 98 % 0 in
06:48 49.6 °F 50 °F 30.1 in Calm   4.7 mph 98 % 0 in
06:53 49.6 °F 50 °F 30.1 in West 2.2 mph 5.6 mph 98 % 0 in
06:58 49.3 °F 50 °F 30.1 in West 2.9 mph 5.6 mph 98 % 0 in
07:03 49.3 °F 50 °F 30.1 in WSW 2.2 mph 5.6 mph 98 % 0 in
07:08 49.3 °F 50 °F 30.1 in West 2.9 mph 5.8 mph 98 % 0 in
07:13 49.5 °F 50 °F 30.1 in Calm   6 mph 98 % 0 in
07:18 49.5 °F 50 °F 30.1 in Calm   6 mph 98 % 0 in
07:23 49.5 °F 50 °F 30.1 in Calm   4.9 mph 98 % 0 in
07:29 48.9 °F 48.2 °F 30.1 in West 3.8 mph 4.7 mph 97 % 0 in
07:34 48.9 °F 48.2 °F 30.1 in Calm   3.8 mph 97 % 0 in
07:39 48.7 °F 48.2 °F 30.1 in West 4.3 mph 4.3 mph 98 % 0 in
07:44 48.7 °F 48.2 °F 30.1 in WSW 4.9 mph 4.9 mph 98 % 0 in
07:54 48.6 °F 48.2 °F 30.2 in West 2.5 mph 5.4 mph 98 % 0 in
07:59 48.6 °F 48.2 °F 30.2 in Calm   4.9 mph 98 % 0 in
08:04 48.6 °F 48.2 °F 30.1 in West 2.2 mph 3.4 mph 98 % 0 in
08:09 48.4 °F 48.2 °F 30.1 in West 2.5 mph 3.4 mph 98 % 0 in
08:14 48.4 °F 48.2 °F 30.1 in West 4 mph 4 mph 98 % 0 in
08:19 48.4 °F 48.2 °F 30.2 in West 3.8 mph 4 mph 98 % 0 in
08:24 48.4 °F 48.2 °F 30.2 in West 5.4 mph 5.4 mph 98 % 0 in
08:29 48.4 °F 48.2 °F 30.2 in West 2.7 mph 5.4 mph 98 % 0 in
08:34 48.4 °F 48.2 °F 30.2 in West 4.9 mph 5.4 mph 98 % 0 in
08:39 48.9 °F 48.2 °F 30.2 in West 7.2 mph 7.2 mph 98 % 0 in
08:44 49.3 °F 50 °F 30.2 in West 3.8 mph 7.2 mph 98 % 0 in
08:49 49.3 °F 50 °F 30.2 in West 4.3 mph 6 mph 98 % 0 in
08:54 49.6 °F 50 °F 30.2 in WSW 4.3 mph 6 mph 98 % 0 in
08:59 50.2 °F 50 °F 30.2 in WSW 4 mph 6 mph 98 % 0 in
09:05 50.5 °F 50 °F 30.2 in West 3.4 mph 5.4 mph 98 % 0 in
09:10 50.7 °F 50 °F 30.2 in West 5.6 mph 6.3 mph 98 % 0 in
09:15 50.7 °F 50 °F 30.2 in West 6.3 mph 7.6 mph 98 % 0 in
09:25 51.6 °F 51.8 °F 30.2 in West 2.9 mph 6.3 mph 97 % 0 in
09:30 52.7 °F 51.8 °F 30.2 in WNW 2.9 mph 2.9 mph 97 % 0 in
09:35 52.9 °F 51.8 °F 30.2 in East 5.4 mph 6.5 mph 97 % 0 in
09:40 54.1 °F 53.6 °F 30.2 in WNW 2 mph 6.5 mph 95 % 0 in
09:50 55 °F 53.6 °F 30.2 in WNW 6.5 mph 9.2 mph 93 % 0 in
09:55 55.4 °F 53.6 °F 30.2 in NNW 2.7 mph 6.5 mph 90 % 0 in
10:00 55.9 °F 51.8 °F 30.2 in NW 4.9 mph 9.6 mph 86 % 0 in
10:05 55.9 °F 51.8 °F 30.2 in WNW 3.8 mph 9.6 mph 85 % 0 in
10:10 56.5 °F 51.8 °F 30.2 in North 12.8 mph 12.8 mph 83 % 0 in
10:15 56.5 °F 51.8 °F 30.2 in West 2.9 mph 12.8 mph 81 % 0 in
10:20 56.7 °F 51.8 °F 30.2 in NNW 5.6 mph 12.8 mph 80 % 0 in
10:25 56.8 °F 50 °F 30.2 in WNW 0.9 mph 10.3 mph 79 % 0 in
10:30 57 °F 50 °F 30.2 in NW 6 mph 8.5 mph 75 % 0 in
10:35 57 °F 50 °F 30.2 in NW 6 mph 10.7 mph 75 % 0 in
10:40 57.6 °F 50 °F 30.2 in WNW 4.7 mph 10.7 mph 76 % 0 in
10:45 57.6 °F 50 °F 30.2 in NNW 3.4 mph 9.2 mph 76 % 0 in
10:50 57.4 °F 48.2 °F 30.2 in NNW 3.6 mph 9.4 mph 71 % 0 in
10:55 57.2 °F 48.2 °F 30.2 in North 6 mph 11 mph 71 % 0 in
11:00 57.9 °F 50 °F 30.2 in NNW 9.6 mph 11 mph 72 % 0 in
11:05 57.7 °F 48.2 °F 30.2 in West 4 mph 9.6 mph 71 % 0 in
11:10 57.6 °F 48.2 °F 30.2 in NNW 3.4 mph 9.6 mph 70 % 0 in
11:15 57.6 °F 48.2 °F 30.2 in NNW 6 mph 12.5 mph 70 % 0 in
11:20 58.8 °F 48.2 °F 30.2 in NNW 5.6 mph 12.5 mph 69 % 0 in
11:25 58.8 °F 48.2 °F 30.2 in North 4.9 mph 10.5 mph 69 % 0 in
11:30 58.3 °F 48.2 °F 30.2 in North 7.4 mph 8.7 mph 66 % 0 in
11:36 58.3 °F 48.2 °F 30.2 in WNW 3.8 mph 10.1 mph 66 % 0 in
11:41 58.8 °F 48.2 °F 30.2 in West 5.6 mph 10.5 mph 64 % 0 in
11:46 58.1 °F 46.4 °F 30.2 in West 5.6 mph 10.5 mph 64 % 0 in
11:51 58.3 °F 48.2 °F 30.2 in NNW 4.3 mph 10.3 mph 66 % 0 in
11:56 58.3 °F 48.2 °F 30.2 in NNE 5.6 mph 10.7 mph 66 % 0 in
12:01 57.9 °F 48.2 °F 30.2 in NNW 4.9 mph 10.7 mph 67 % 0 in
12:06 57.9 °F 48.2 °F 30.2 in WNW 6 mph 10.3 mph 69 % 0 in
12:11 59 °F 48.2 °F 30.2 in West 5.6 mph 10.3 mph 66 % 0 in
12:16 59.7 °F 48.2 °F 30.2 in North 4.3 mph 9.6 mph 65 % 0 in
12:21 60.1 °F 48.2 °F 30.2 in NE 3.4 mph 9.6 mph 65 % 0 in
12:26 60.6 °F 48.2 °F 30.2 in NNW 9.4 mph 9.4 mph 64 % 0 in
12:31 59.5 °F 48.2 °F 30.2 in North 8.5 mph 10.3 mph 64 % 0 in
12:36 59.4 °F 48.2 °F 30.2 in WNW 7.2 mph 10.3 mph 63 % 0 in
12:46 59.4 °F 48.2 °F 30.2 in NNW 5.6 mph 9.6 mph 63 % 0 in
12:51 59.4 °F 48.2 °F 30.2 in NNW 5.8 mph 9.8 mph 63 % 0 in
13:01 58.8 °F 48.2 °F 30.2 in North 7.8 mph 13.2 mph 65 % 0 in
13:06 59.7 °F 48.2 °F 30.2 in NNW 5.4 mph 7.8 mph 66 % 0 in
13:11 60.6 °F 48.2 °F 30.2 in NW 6 mph 11.9 mph 63 % 0 in
13:16 59.5 °F 46.4 °F 30.2 in NNW 5.6 mph 11.9 mph 59 % 0 in
13:17 59.5 °F 46.4 °F 30.2 in NNW 5.8 mph 11.9 mph 59 % 0 in
13:22 60.1 °F 48.2 °F 30.2 in NNW 7.8 mph 11.9 mph 62 % 0 in
13:32 59.7 °F 46.4 °F 30.2 in North 10.7 mph 14.3 mph 60 % 0 in
13:37 58.5 °F 48.2 °F 30.2 in NNW 6.3 mph 14.3 mph 65 % 0 in
13:42 58.6 °F 48.2 °F 30.2 in North 6.3 mph 12.1 mph 67 % 0 in
13:43 58.6 °F 48.2 °F 30.2 in North 6.3 mph 12.1 mph 67 % 0 in
13:48 59.9 °F 48.2 °F 30.2 in WNW 6.5 mph 11 mph 63 % 0 in
13:53 59.9 °F 48.2 °F 30.2 in NNW 4 mph 11 mph 63 % 0 in
13:58 59.9 °F 48.2 °F 30.2 in North 5.4 mph 11 mph 63 % 0 in
14:03 61.9 °F 46.4 °F 30.2 in North 7.8 mph 8.7 mph 57 % 0 in
14:08 60.4 °F 46.4 °F 30.2 in NNW 8.5 mph 13.6 mph 58 % 0 in
14:13 60.4 °F 46.4 °F 30.2 in NE 1.6 mph 13.6 mph 58 % 0 in
14:18 61.7 °F 48.2 °F 30.2 in NNW 4.7 mph 9.2 mph 61 % 0 in
14:23 61.2 °F 46.4 °F 30.2 in NNW 4.3 mph 13.2 mph 56 % 0 in
14:28 60.3 °F 46.4 °F 30.2 in North 11 mph 13.2 mph 58 % 0 in
14:33 61 °F 46.4 °F 30.2 in NNW 7.8 mph 11 mph 57 % 0 in
14:38 61 °F 46.4 °F 30.2 in North 5.4 mph 11 mph 57 % 0 in
14:43 62.8 °F 46.4 °F 30.2 in West 4 mph 8.7 mph 56 % 0 in
14:48 60.8 °F 44.6 °F 30.3 in NNW 6.3 mph 8.7 mph 55 % 0 in
14:53 60.8 °F 44.6 °F 30.3 in North 4.9 mph 6.3 mph 55 % 0 in
14:58 61.7 °F 48.2 °F 30.3 in NW 6.3 mph 8.5 mph 59 % 0 in
15:03 61.3 °F 46.4 °F 30.2 in North 6.9 mph 11.9 mph 57 % 0 in
15:08 60.3 °F 44.6 °F 30.2 in NNE 2.9 mph 11.9 mph 57 % 0 in
15:11 60.3 °F 44.6 °F 30.2 in West 7.6 mph 8.7 mph 57 % 0 in
15:17 60.3 °F 44.6 °F 30.3 in North 5.8 mph 8.1 mph 57 % 0 in
15:22 60.3 °F 44.6 °F 30.3 in North 7.4 mph 8.1 mph 57 % 0 in
15:27 62.2 °F 46.4 °F 30.3 in NNW 7.4 mph 7.8 mph 54 % 0 in
15:37 61.5 °F 44.6 °F 30.2 in WNW 5.6 mph 12.5 mph 53 % 0 in
15:42 60.8 °F 42.8 °F 30.2 in WNW 4 mph 6.5 mph 52 % 0 in
15:47 60.8 °F 42.8 °F 30.3 in North 2.2 mph 6.5 mph 52 % 0 in
15:57 63.9 °F 46.4 °F 30.3 in North 2.2 mph 9.6 mph 52 % 0 in
16:02 64.2 °F 46.4 °F 30.3 in NNW 6.3 mph 9.6 mph 51 % 0 in
16:12 64 °F 46.4 °F 30.3 in NNW 5.4 mph 10.1 mph 52 % 0 in
16:17 64 °F 46.4 °F 30.3 in North 3.8 mph 10.1 mph 52 % 0 in
16:22 59.7 °F 44.6 °F 30.3 in North 9.6 mph 9.6 mph 56 % 0 in
16:27 60.6 °F 44.6 °F 30.3 in North 8.1 mph 9.6 mph 56 % 0 in
16:32 59.9 °F 44.6 °F 30.3 in WNW 7.2 mph 9.6 mph 55 % 0 in
16:37 59.4 °F 42.8 °F 30.3 in NNW 5.4 mph 9.8 mph 55 % 0 in
16:42 59.4 °F 42.8 °F 30.3 in NNW 5.4 mph 9.8 mph 55 % 0 in
16:47 59.7 °F 44.6 °F 30.3 in NNW 5.8 mph 8.7 mph 56 % 0 in
16:52 59 °F 42.8 °F 30.3 in North 5.8 mph 7.4 mph 54 % 0 in
16:57 58.8 °F 42.8 °F 30.3 in North 5.8 mph 6.5 mph 55 % 0 in
17:02 58.5 °F 42.8 °F 30.3 in North 5.8 mph 5.8 mph 57 % 0 in
17:12 59.9 °F 44.6 °F 30.3 in North 5.8 mph 5.8 mph 55 % 0 in
17:17 59.4 °F 44.6 °F 30.3 in North 5.8 mph 5.8 mph 56 % 0 in
17:22 59.2 °F 42.8 °F 30.3 in North 5.8 mph 5.8 mph 55 % 0 in
17:27 59.4 °F 42.8 °F 30.3 in North 5.8 mph 5.8 mph 55 % 0 in
17:28 59.2 °F 42.8 °F 30.3 in North 5.8 mph 5.8 mph 55 % 0 in
17:38 58.1 °F 42.8 °F 30.3 in North 5.8 mph 5.8 mph 56 % 0 in
17:43 57.6 °F 42.8 °F 30.3 in North 5.8 mph 5.8 mph 58 % 0 in
17:53 56.7 °F 42.8 °F 30.3 in North 5.8 mph 5.8 mph 59 % 0 in
17:58 56.3 °F 42.8 °F 30.3 in North 5.8 mph 5.8 mph 61 % 0 in
18:03 56.7 °F 44.6 °F 30.3 in North 5.8 mph 5.8 mph 62 % 0 in
18:08 57.2 °F 44.6 °F 30.3 in North 5.8 mph 5.8 mph 62 % 0 in
18:13 57.2 °F 44.6 °F 30.3 in North 5.8 mph 5.8 mph 62 % 0 in
18:18 57.6 °F 46.4 °F 30.2 in North 5.8 mph 5.8 mph 63 % 0 in
18:23 57.7 °F 44.6 °F 30.2 in North 5.8 mph 5.8 mph 62 % 0 in
18:33 56.5 °F 44.6 °F 30.3 in North 5.8 mph 5.8 mph 62 % 0 in
18:38 56.1 °F 44.6 °F 30.3 in North 5.8 mph 5.8 mph 63 % 0 in
18:48 55.8 °F 44.6 °F 30.3 in North 5.8 mph 5.8 mph 64 % 0 in
18:53 55.4 °F 44.6 °F 30.3 in North 5.8 mph 5.8 mph 64 % 0 in
18:59 54.9 °F 44.6 °F 30.3 in Calm     65 % 0 in
19:04 54.5 °F 44.6 °F 30.3 in Calm     66 % 0 in
19:09 54.1 °F 42.8 °F 30.3 in Calm     66 % 0 in
19:14 53.4 °F 42.8 °F 30.3 in Calm     67 % 0 in
19:19 53.1 °F 42.8 °F 30.3 in Calm     68 % 0 in
19:24 52.7 °F 42.8 °F 30.3 in Calm     68 % 0 in
19:29 52.5 °F 42.8 °F 30.3 in Calm     69 % 0 in
19:34 52 °F 42.8 °F 30.3 in Calm     69 % 0 in
19:39 51.4 °F 42.8 °F 30.3 in Calm     70 % 0 in
19:44 50.5 °F 42.8 °F 30.3 in Calm     71 % 0 in
19:49 50.2 °F 41 °F 30.3 in Calm     71 % 0 in
19:54 49.6 °F 41 °F 30.3 in Calm     72 % 0 in
19:59 49.1 °F 41 °F 30.3 in Calm     73 % 0 in
20:04 48.9 °F 42.8 °F 30.3 in Calm     75 % 0 in
20:09 48.7 °F 42.8 °F 30.3 in Calm     75 % 0 in
20:19 48.4 °F 41 °F 30.3 in Calm     76 % 0 in
20:24 48.2 °F 41 °F 30.3 in Calm     76 % 0 in
20:29 48.2 °F 42.8 °F 30.3 in Calm     77 % 0 in
20:30 48.2 °F 42.8 °F 30.3 in Calm     77 % 0 in
20:35 48.2 °F 42.8 °F 30.3 in Calm     78 % 0 in
20:40 48 °F 42.8 °F 30.3 in Calm     79 % 0 in
20:45 48 °F 42.8 °F 30.3 in Calm     80 % 0 in
20:50 48 °F 42.8 °F 30.3 in Calm     80 % 0 in
20:55 47.8 °F 42.8 °F 30.3 in Calm     81 % 0 in
21:00 47.7 °F 42.8 °F 30.3 in Calm     82 % 0 in
21:05 47.7 °F 42.8 °F 30.3 in Calm     82 % 0 in
21:10 47.5 °F 42.8 °F 30.3 in Calm     82 % 0 in
21:15 47.3 °F 42.8 °F 30.3 in Calm     83 % 0 in
21:20 47.3 °F 42.8 °F 30.3 in Calm     84 % 0 in
21:25 47.3 °F 42.8 °F 30.3 in Calm     84 % 0 in
21:30 47.3 °F 42.8 °F 30.3 in Calm     84 % 0 in
21:35 47.3 °F 44.6 °F 30.3 in Calm     85 % 0 in
21:40 47.1 °F 42.8 °F 30.3 in Calm     85 % 0 in
21:43 47.1 °F 42.8 °F 30.3 in Calm     85 % 0 in
21:48 46.9 °F 42.8 °F 30.3 in Calm     85 % 0 in
21:53 46.8 °F 42.8 °F 30.3 in Calm     85 % 0 in
21:59 46.8 °F 42.8 °F 30.3 in Calm     85 % 0 in
22:04 46.6 °F 42.8 °F 30.3 in Calm     86 % 0 in
22:09 46.4 °F 42.8 °F 30.3 in Calm     86 % 0 in
22:19 45.9 °F 42.8 °F 30.3 in Calm     86 % 0 in
22:24 45.7 °F 42.8 °F 30.3 in Calm     86 % 0 in
22:29 45.3 °F 42.8 °F 30.3 in Calm     87 % 0 in
22:34 45.3 °F 42.8 °F 30.3 in Calm     87 % 0 in
22:39 45.5 °F 42.8 °F 30.3 in Calm     88 % 0 in
22:44 45.5 °F 42.8 °F 30.3 in Calm     88 % 0 in
22:49 45.5 °F 42.8 °F 30.3 in Calm     88 % 0 in
22:54 45.9 °F 42.8 °F 30.3 in Calm     89 % 0 in
23:00 45.9 °F 42.8 °F 30.3 in Calm     90 % 0 in
23:05 45.9 °F 42.8 °F 30.3 in Calm     89 % 0 in
23:10 45.5 °F 42.8 °F 30.3 in Calm     89 % 0 in
23:15 45.1 °F 42.8 °F 30.3 in Calm     88 % 0 in
23:20 45 °F 42.8 °F 30.3 in Calm     89 % 0 in
23:25 45.1 °F 42.8 °F 30.3 in Calm     90 % 0 in
23:30 45.1 °F 42.8 °F 30.3 in Calm     90 % 0 in
23:35 44.8 °F 42.8 °F 30.3 in Calm     90 % 0 in
23:40 44.8 °F 42.8 °F 30.3 in Calm     90 % 0 in
23:46 44.8 °F 42.8 °F 30.3 in Calm   2.2 mph 90 % 0 in
23:51 44.8 °F 42.8 °F 30.3 in Calm   2.2 mph 90 % 0 in
23:56 44.8 °F 42.8 °F 30.3 in West 2.9 mph 4.3 mph 90 % 0 in
Le Gheer Warneton
Courtoisie de Weather Underground - 2.25 mb

Mise a jour : 18/12/2017 23:10:11
Généré par Cumulus 1.9.4 (1099)